createdAt,value
2022-10-22T00:00:39.978Z,98923.72
2022-10-22T00:03:41.769Z,98913.56
2022-10-22T00:06:45.075Z,98914.72
2022-10-22T00:09:47.698Z,98921.19
2022-10-22T00:12:49.433Z,98900.16
2022-10-22T00:15:51.230Z,98906.03
2022-10-22T00:18:53.151Z,98889.28
2022-10-22T00:21:54.834Z,98880.91
2022-10-22T00:24:56.443Z,98876.88
2022-10-22T00:27:58.032Z,98865.50
2022-10-22T00:31:00.826Z,98873.34
2022-10-22T00:34:02.697Z,98872.16
2022-10-22T00:37:04.347Z,98865.50
2022-10-22T00:40:06.457Z,98885.13
2022-10-22T00:43:19.782Z,98875.81
2022-10-22T00:46:21.587Z,98871.72
2022-10-22T00:49:23.241Z,98894.22
2022-10-22T00:52:25.378Z,98904.38
2022-10-22T00:55:28.685Z,98904.47
2022-10-22T00:58:35.025Z,98919.97
2022-10-22T01:01:36.560Z,98938.72
2022-10-22T01:04:38.164Z,98940.19
2022-10-22T01:07:50.399Z,98949.47
2022-10-22T01:11:06.863Z,98965.50
2022-10-22T01:14:22.880Z,98982.31
2022-10-22T01:17:49.706Z,98996.53
2022-10-22T01:21:04.656Z,99000.53
2022-10-22T01:24:11.799Z,99005.97
2022-10-22T01:27:41.278Z,99005.97
2022-10-22T01:30:45.938Z,99012.88
2022-10-22T01:33:49.136Z,99022.88
2022-10-22T01:36:52.955Z,99012.72
2022-10-22T01:39:57.193Z,99029.00
2022-10-22T01:43:01.345Z,99038.91
2022-10-22T01:46:05.921Z,99042.66
2022-10-22T01:49:12.665Z,99029.03
2022-10-22T01:52:20.765Z,99020.81
2022-10-22T01:55:32.479Z,99040.22
2022-10-22T01:59:04.541Z,99019.13
2022-10-22T02:02:30.838Z,98988.38
2022-10-22T02:05:48.771Z,98987.16
2022-10-22T02:08:52.728Z,98945.25
2022-10-22T02:11:55.945Z,98911.16
2022-10-22T02:14:59.050Z,98879.91
2022-10-22T02:18:01.825Z,98875.59
2022-10-22T02:21:04.410Z,98893.91
2022-10-22T02:24:07.094Z,98891.41
2022-10-22T02:27:26.871Z,98893.84
2022-10-22T02:30:28.878Z,98881.50
2022-10-22T02:33:36.255Z,98892.63
2022-10-22T02:36:39.149Z,98903.50
2022-10-22T02:39:41.218Z,98865.16
2022-10-22T02:42:43.964Z,98870.28
2022-10-22T02:45:46.983Z,98879.59
2022-10-22T02:48:48.633Z,98867.34
2022-10-22T02:51:50.223Z,98905.22
2022-10-22T02:54:51.845Z,98884.09
2022-10-22T02:57:53.459Z,98888.94
2022-10-22T03:00:55.096Z,98886.50
2022-10-22T03:03:56.778Z,98890.00
2022-10-22T03:06:58.466Z,98907.69
2022-10-22T03:10:00.216Z,98902.63
2022-10-22T03:13:01.850Z,98882.13
2022-10-22T03:16:03.781Z,98896.66
2022-10-22T03:19:05.366Z,98886.22
2022-10-22T03:22:12.680Z,98901.31
2022-10-22T03:25:19.482Z,98901.94
2022-10-22T03:28:21.111Z,98895.81
2022-10-22T03:31:22.760Z,98898.31
2022-10-22T03:34:24.390Z,98899.78
2022-10-22T03:37:27.382Z,98888.22
2022-10-22T03:40:29.234Z,98914.28
2022-10-22T03:43:30.879Z,98897.03
2022-10-22T03:46:32.679Z,98908.06
2022-10-22T03:49:34.358Z,98900.97
2022-10-22T03:52:38.454Z,98905.88
2022-10-22T03:55:41.723Z,98916.06
2022-10-22T03:58:43.405Z,98920.13
2022-10-22T04:01:45.060Z,98936.22
2022-10-22T04:04:46.622Z,98938.06
2022-10-22T04:07:48.237Z,98943.50
2022-10-22T04:10:52.885Z,98942.00
2022-10-22T04:13:54.614Z,98970.47
2022-10-22T04:16:56.230Z,98979.88
2022-10-22T04:19:57.795Z,98971.00
2022-10-22T04:22:59.427Z,98962.94
2022-10-22T04:26:03.237Z,98962.16
2022-10-22T04:29:10.536Z,98947.00
2022-10-22T04:32:15.113Z,98953.06
2022-10-22T04:35:16.826Z,98960.31
2022-10-22T04:38:18.565Z,98954.38
2022-10-22T04:41:23.645Z,98954.63
2022-10-22T04:44:25.289Z,98950.00
2022-10-22T04:47:27.221Z,98971.59
2022-10-22T04:50:29.103Z,98968.66
2022-10-22T04:53:30.790Z,98969.34
2022-10-22T04:56:33.038Z,98971.88
2022-10-22T04:59:34.715Z,98978.13
2022-10-22T05:02:36.317Z,98972.59
2022-10-22T05:05:37.890Z,98967.97
2022-10-22T05:08:39.605Z,98961.66
2022-10-22T05:11:45.539Z,98976.91
2022-10-22T05:14:47.201Z,98973.28
2022-10-22T05:17:48.885Z,98963.97
2022-10-22T05:20:50.566Z,98970.31
2022-10-22T05:23:54.847Z,98992.00
2022-10-22T05:26:57.929Z,98996.28
2022-10-22T05:29:59.571Z,98992.34
2022-10-22T05:33:01.220Z,98995.53
2022-10-22T05:36:05.025Z,99003.75
2022-10-22T05:39:06.683Z,98998.78
2022-10-22T05:42:08.418Z,98989.06
2022-10-22T05:45:10.252Z,98994.34
2022-10-22T05:48:11.888Z,99001.72
2022-10-22T05:51:14.086Z,99010.84
2022-10-22T05:54:18.349Z,99016.06
2022-10-22T05:57:20.048Z,99012.66
2022-10-22T06:00:21.816Z,99016.78
2022-10-22T06:03:23.476Z,99024.44
2022-10-22T06:06:38.328Z,99023.16
2022-10-22T06:09:39.987Z,99035.47
2022-10-22T06:12:41.970Z,99030.25
2022-10-22T06:15:43.786Z,99042.59
2022-10-22T06:18:45.672Z,99042.91
2022-10-22T06:21:48.343Z,99046.22
2022-10-22T06:24:49.922Z,99049.88
2022-10-22T06:27:51.949Z,99052.59
2022-10-22T06:30:53.651Z,99078.78
2022-10-22T06:33:57.287Z,99081.50
2022-10-22T06:36:58.907Z,99094.84
2022-10-22T06:40:00.504Z,99097.75
2022-10-22T06:43:02.246Z,99101.63
2022-10-22T06:46:07.522Z,99106.81
2022-10-22T06:49:12.414Z,99106.41
2022-10-22T06:52:14.046Z,99111.66
2022-10-22T06:55:15.778Z,99112.34
2022-10-22T06:58:17.551Z,99110.44
2022-10-22T07:01:23.259Z,99115.16
2022-10-22T07:04:25.562Z,99108.66
2022-10-22T07:07:27.415Z,99108.66
2022-10-22T07:10:30.702Z,99111.03
2022-10-22T07:13:32.648Z,99115.78
2022-10-22T07:16:34.541Z,99119.81
2022-10-22T07:19:36.279Z,99118.03
2022-10-22T07:22:38.339Z,99120.38
2022-10-22T07:25:41.466Z,99109.84
2022-10-22T07:28:43.824Z,99114.47
2022-10-22T07:31:45.625Z,99114.31
2022-10-22T07:34:47.347Z,99119.44
2022-10-22T07:37:49.108Z,99129.44
2022-10-22T07:40:50.787Z,99123.41
2022-10-22T07:43:52.730Z,99136.44
2022-10-22T07:46:55.046Z,99132.84
2022-10-22T07:49:56.632Z,99145.22
2022-10-22T07:52:58.542Z,99118.50
2022-10-22T07:56:00.477Z,99137.28
2022-10-22T08:02:10.033Z,99148.78
2022-10-22T08:05:13.352Z,99154.19
2022-10-22T08:08:16.743Z,99155.88
2022-10-22T08:11:18.471Z,99146.38
2022-10-22T08:14:20.115Z,99145.44
2022-10-22T08:17:21.795Z,99151.34
2022-10-22T08:20:23.574Z,99159.53
2022-10-22T08:23:27.703Z,99157.28
2022-10-22T08:26:30.228Z,99167.25
2022-10-22T08:29:32.010Z,99162.13
2022-10-22T08:32:33.928Z,99160.22
2022-10-22T08:35:35.689Z,99163.66
2022-10-22T08:38:37.536Z,99159.63
2022-10-22T08:41:53.069Z,99159.31
2022-10-22T08:45:07.532Z,99163.41
2022-10-22T08:48:27.316Z,99168.25
2022-10-22T08:51:40.531Z,99173.44
2022-10-22T08:54:53.171Z,99167.75
2022-10-22T08:58:08.704Z,99168.03
2022-10-22T09:01:16.614Z,99178.59
2022-10-22T09:04:31.005Z,99184.50
2022-10-22T09:07:32.878Z,99181.41
2022-10-22T09:10:38.310Z,99183.34
2022-10-22T09:13:45.871Z,99177.63
2022-10-22T09:17:10.013Z,99188.25
2022-10-22T09:20:44.228Z,99196.53
2022-10-22T09:23:49.036Z,99195.19
2022-10-22T09:26:51.254Z,99196.50
2022-10-22T09:29:52.919Z,99211.81
2022-10-22T09:33:01.800Z,99202.31
2022-10-22T09:36:06.932Z,99215.88
2022-10-22T09:39:26.576Z,99210.88
2022-10-22T09:42:28.380Z,99222.16
2022-10-22T09:45:32.496Z,99216.81
2022-10-22T09:48:37.447Z,99223.47
2022-10-22T09:51:50.125Z,99221.34
2022-10-22T09:54:52.735Z,99213.75
2022-10-22T09:57:58.526Z,99225.97
2022-10-22T10:01:01.458Z,99222.19
2022-10-22T10:04:09.447Z,99220.31
2022-10-22T10:07:17.764Z,99218.91
2022-10-22T10:10:34.711Z,99229.50
2022-10-22T10:13:59.286Z,99223.53
2022-10-22T10:17:33.394Z,99224.66
2022-10-22T10:20:46.852Z,99223.31
2022-10-22T10:24:05.166Z,99230.81
2022-10-22T10:27:20.365Z,99232.94
2022-10-22T10:30:24.201Z,99226.53
2022-10-22T10:33:45.400Z,99229.44
2022-10-22T10:37:14.748Z,99232.94
2022-10-22T10:40:38.056Z,99220.81
2022-10-22T10:44:13.929Z,99236.69
2022-10-22T10:47:29.526Z,99230.94
2022-10-22T10:50:45.454Z,99227.00
2022-10-22T10:54:19.567Z,99233.28
2022-10-22T10:57:42.003Z,99229.31
2022-10-22T11:00:57.270Z,99229.00
2022-10-22T11:04:24.232Z,99228.66
2022-10-22T11:07:34.771Z,99222.09
2022-10-22T11:10:43.509Z,99220.84
2022-10-22T11:14:11.505Z,99214.56
2022-10-22T11:17:18.339Z,99217.69
2022-10-22T11:20:27.979Z,99215.41
2022-10-22T11:23:38.037Z,99214.28
2022-10-22T11:26:53.152Z,99209.16
2022-10-22T11:30:03.353Z,99209.56
2022-10-22T11:33:11.473Z,99211.16
2022-10-22T11:36:13.854Z,99210.78
2022-10-22T11:39:37.884Z,99214.31
2022-10-22T11:42:44.055Z,99211.16
2022-10-22T11:45:50.578Z,99209.59
2022-10-22T11:49:02.994Z,99208.00
2022-10-22T11:53:21.593Z,99204.50
2022-10-22T11:56:25.432Z,99180.91
2022-10-22T11:59:39.583Z,99203.31
2022-10-22T12:02:45.991Z,99193.09
2022-10-22T12:06:22.673Z,99197.78
2022-10-22T12:09:30.048Z,99190.72
2022-10-22T12:12:36.371Z,99197.41
2022-10-22T12:15:48.705Z,99200.09
2022-10-22T12:19:04.336Z,99193.03
2022-10-22T12:22:25.989Z,99183.19
2022-10-22T12:25:35.683Z,99196.59
2022-10-22T12:28:40.739Z,99194.69
2022-10-22T12:31:44.944Z,99197.03
2022-10-22T12:34:52.137Z,99199.34
2022-10-22T12:38:12.998Z,99195.03
2022-10-22T12:41:15.340Z,99192.63
2022-10-22T12:44:18.097Z,99192.22
2022-10-22T12:47:19.829Z,99190.25
2022-10-22T12:50:29.562Z,99189.16
2022-10-22T12:53:35.211Z,99180.16
2022-10-22T12:56:37.906Z,99184.47
2022-10-22T12:59:45.857Z,99186.03
2022-10-22T13:02:51.135Z,99180.47
2022-10-22T13:05:52.773Z,99177.00
2022-10-22T13:08:57.691Z,99180.50
2022-10-22T13:12:07.632Z,99171.44
2022-10-22T13:15:43.551Z,99172.56
2022-10-22T13:18:46.552Z,99173.25
2022-10-22T13:21:49.051Z,99162.66
2022-10-22T13:24:51.622Z,99165.31
2022-10-22T13:28:02.897Z,99165.22
2022-10-22T13:31:34.030Z,99163.91
2022-10-22T13:34:36.400Z,99150.66
2022-10-22T13:37:38.919Z,99143.78
2022-10-22T13:40:41.008Z,99158.09
2022-10-22T13:43:42.713Z,99153.97
2022-10-22T13:46:45.092Z,99151.91
2022-10-22T13:49:47.597Z,99149.03
2022-10-22T13:52:54.773Z,99139.19
2022-10-22T13:55:56.564Z,99138.75
2022-10-22T13:58:58.202Z,99140.97
2022-10-22T14:02:06.047Z,99139.78
2022-10-22T14:05:09.610Z,99153.00
2022-10-22T14:08:21.317Z,99142.94
2022-10-22T14:11:23.058Z,99140.91
2022-10-22T14:14:24.641Z,99136.53
2022-10-22T14:17:27.646Z,99147.69
2022-10-22T14:20:31.651Z,99152.91
2022-10-22T14:23:36.189Z,99139.63
2022-10-22T14:26:37.903Z,99131.06
2022-10-22T14:29:39.820Z,99150.50
2022-10-22T14:32:41.875Z,99137.97
2022-10-22T14:35:44.127Z,99139.53
2022-10-22T14:38:47.644Z,99154.41
2022-10-22T14:41:49.515Z,99147.38
2022-10-22T14:44:51.406Z,99142.69
2022-10-22T14:47:57.453Z,99145.72
2022-10-22T14:51:28.234Z,99144.22
2022-10-22T14:54:36.842Z,99140.78
2022-10-22T14:57:42.785Z,99138.53
2022-10-22T15:00:48.930Z,99124.84
2022-10-22T15:03:51.577Z,99116.56
2022-10-22T15:06:56.486Z,99118.97
2022-10-22T15:09:58.322Z,99130.69
2022-10-22T15:13:00.051Z,99128.34
2022-10-22T15:16:07.525Z,99121.66
2022-10-22T15:19:11.567Z,99125.16
2022-10-22T15:22:15.111Z,99126.63
2022-10-22T15:25:16.802Z,99120.63
2022-10-22T15:28:18.751Z,99134.28
2022-10-22T15:31:43.358Z,99126.63
2022-10-22T15:34:44.939Z,99124.81
2022-10-22T15:37:46.629Z,99132.47
2022-10-22T15:40:48.417Z,99127.69
2022-10-22T15:43:50.104Z,99126.94
2022-10-22T15:46:52.455Z,99116.00
2022-10-22T15:49:54.688Z,99133.59
2022-10-22T15:52:57.118Z,99133.03
2022-10-22T15:55:58.834Z,99128.75
2022-10-22T15:59:04.010Z,99130.56
2022-10-22T16:02:07.294Z,99122.75
2022-10-22T16:05:09.520Z,99129.66
2022-10-22T16:08:11.489Z,99131.44
2022-10-22T16:11:13.443Z,99127.81
2022-10-22T16:14:17.376Z,99127.25
2022-10-22T16:17:19.190Z,99125.88
2022-10-22T16:20:20.967Z,99126.53
2022-10-22T16:23:23.103Z,99125.28
2022-10-22T16:26:24.775Z,99118.19
2022-10-22T16:29:26.701Z,99116.47
2022-10-22T16:32:28.403Z,99131.25
2022-10-22T16:35:30.587Z,99122.09
2022-10-22T16:38:33.629Z,99130.69
2022-10-22T16:41:36.348Z,99128.59
2022-10-22T16:44:38.929Z,99128.13
2022-10-22T16:47:43.213Z,99124.91
2022-10-22T16:50:45.240Z,99118.81
2022-10-22T16:53:47.546Z,99115.94
2022-10-22T16:56:49.407Z,99121.81
2022-10-22T16:59:51.541Z,99128.34
2022-10-22T17:02:53.953Z,99142.25
2022-10-22T17:05:58.665Z,99120.31
2022-10-22T17:09:00.395Z,99148.69
2022-10-22T17:12:02.347Z,99143.84
2022-10-22T17:15:05.452Z,99153.16
2022-10-22T17:18:07.072Z,99152.19
2022-10-22T17:21:10.628Z,99151.34
2022-10-22T17:24:12.708Z,99152.78
2022-10-22T17:27:14.614Z,99152.00
2022-10-22T17:30:23.266Z,99147.16
2022-10-22T17:33:28.158Z,99149.09
2022-10-22T17:36:33.452Z,99151.47
2022-10-22T17:39:38.071Z,99149.88
2022-10-22T17:42:40.126Z,99156.03
2022-10-22T17:45:42.064Z,99138.13
2022-10-22T17:48:44.061Z,99137.28
2022-10-22T17:51:46.727Z,99143.13
2022-10-22T17:54:50.075Z,99144.22
2022-10-22T17:57:51.840Z,99143.09
2022-10-22T18:00:53.744Z,99130.22
2022-10-22T18:04:00.327Z,99135.28
2022-10-22T18:07:02.404Z,99133.31
2022-10-22T18:10:04.658Z,99121.94
2022-10-22T18:13:06.384Z,99137.78
2022-10-22T18:16:08.460Z,99140.47
2022-10-22T18:19:11.316Z,99143.47
2022-10-22T18:22:13.394Z,99136.38
2022-10-22T18:25:15.193Z,99148.19
2022-10-22T18:28:18.039Z,99144.53
2022-10-22T18:31:22.619Z,99149.31
2022-10-22T18:34:24.409Z,99146.09
2022-10-22T18:37:26.059Z,99146.44
2022-10-22T18:40:30.197Z,99146.38
2022-10-22T18:43:31.931Z,99145.41
2022-10-22T18:46:35.283Z,99141.16
2022-10-22T18:49:37.028Z,99145.41
2022-10-22T18:52:38.973Z,99138.00
2022-10-22T18:55:41.809Z,99140.38
2022-10-22T18:58:46.399Z,99141.81
2022-10-22T19:01:48.865Z,99131.63
2022-10-22T19:04:50.536Z,99135.22
2022-10-22T19:07:52.315Z,99130.19
2022-10-22T19:10:54.229Z,99126.25
2022-10-22T19:13:55.875Z,99123.16
2022-10-22T19:16:57.555Z,99111.06
2022-10-22T19:19:59.207Z,99118.38
2022-10-22T19:23:01.074Z,99110.94
2022-10-22T19:26:02.674Z,99122.13
2022-10-22T19:29:04.538Z,99119.34
2022-10-22T19:35:08.282Z,99126.44
2022-10-22T19:38:10.106Z,99113.91
2022-10-22T19:41:14.600Z,99108.38
2022-10-22T19:44:16.519Z,99104.72
2022-10-22T19:47:18.232Z,99106.72
2022-10-22T19:50:20.208Z,99108.91
2022-10-22T19:53:21.955Z,99064.31
2022-10-22T19:56:23.817Z,99107.97
2022-10-22T19:59:29.812Z,99100.38
2022-10-22T20:02:33.162Z,99102.81
2022-10-22T20:05:38.407Z,99092.63
2022-10-22T20:08:40.602Z,99108.72
2022-10-22T20:11:43.505Z,99116.75
2022-10-22T20:14:45.114Z,99119.41
2022-10-22T20:17:46.712Z,99110.69
2022-10-22T20:20:48.866Z,99116.78
2022-10-22T20:23:54.560Z,99121.63
2022-10-22T20:26:56.309Z,99124.59
2022-10-22T20:29:57.967Z,99114.56
2022-10-22T20:32:59.595Z,99141.03
2022-10-22T20:36:04.351Z,99114.91
2022-10-22T20:39:09.072Z,99126.13
2022-10-22T20:42:11.012Z,99131.34
2022-10-22T20:45:12.677Z,99114.22
2022-10-22T20:48:14.407Z,99129.47
2022-10-22T20:51:16.088Z,99123.81
2022-10-22T20:54:19.183Z,99132.69
2022-10-22T20:57:20.834Z,99135.75
2022-10-22T21:00:22.718Z,99130.78
2022-10-22T21:03:24.425Z,99135.63
2022-10-22T21:06:26.234Z,99129.66
2022-10-22T21:09:28.213Z,99125.16
2022-10-22T21:12:30.057Z,99133.00
2022-10-22T21:15:31.761Z,99135.59
2022-10-22T21:18:34.041Z,99128.41
2022-10-22T21:21:35.777Z,99116.94
2022-10-22T21:24:37.401Z,99119.88
2022-10-22T21:27:39.271Z,99130.53
2022-10-22T21:30:45.611Z,99125.09
2022-10-22T21:33:49.948Z,99115.94
2022-10-22T21:36:52.966Z,99110.50
2022-10-22T21:39:54.685Z,99113.00
2022-10-22T21:42:57.261Z,99107.16
2022-10-22T21:46:12.884Z,99119.69
2022-10-22T21:49:14.645Z,99108.31
2022-10-22T21:52:16.438Z,99124.38
2022-10-22T21:55:18.060Z,99100.75
2022-10-22T21:58:19.682Z,99122.47
2022-10-22T22:01:21.814Z,99109.00
2022-10-22T22:04:23.546Z,99128.78
2022-10-22T22:07:25.311Z,99119.41
2022-10-22T22:10:27.066Z,99114.72
2022-10-22T22:13:28.807Z,99116.31
2022-10-22T22:16:32.937Z,99099.59
2022-10-22T22:19:34.632Z,99106.75
2022-10-22T22:22:36.401Z,99103.94
2022-10-22T22:25:38.199Z,99109.81
2022-10-22T22:28:40.227Z,99105.16
2022-10-22T22:31:43.000Z,99121.63
2022-10-22T22:34:44.655Z,99119.41
2022-10-22T22:37:46.608Z,99110.59
2022-10-22T22:40:48.386Z,99112.47
2022-10-22T22:43:51.104Z,99106.78
2022-10-22T22:46:52.807Z,99102.84
2022-10-22T22:49:54.466Z,99103.22
2022-10-22T22:52:56.693Z,99111.81
2022-10-22T22:56:13.574Z,99112.34
2022-10-22T22:59:15.158Z,99101.41
2022-10-22T23:02:17.217Z,99096.25
2022-10-22T23:05:18.839Z,99082.00
2022-10-22T23:08:20.552Z,99082.72
2022-10-22T23:11:23.773Z,99097.59
2022-10-22T23:14:25.411Z,99096.94
2022-10-22T23:17:27.151Z,99099.91
2022-10-22T23:20:28.926Z,99094.03
2022-10-22T23:23:32.283Z,99120.63
2022-10-22T23:26:40.189Z,99130.97
2022-10-22T23:29:41.790Z,99118.19
2022-10-22T23:32:43.387Z,99119.69
2022-10-22T23:35:45.603Z,99112.56
2022-10-22T23:38:47.464Z,99105.63
2022-10-22T23:41:49.786Z,99078.72
2022-10-22T23:44:51.408Z,99084.75
2022-10-22T23:47:53.057Z,99077.84
2022-10-22T23:50:54.682Z,99078.19
2022-10-22T23:54:01.960Z,99088.72
2022-10-22T23:57:03.694Z,99072.94
